首页
METAR-TAF:

METAR-TAF

机场 :

河內, 越南

內排國際機場

纬度: 21-01N, 经度: 105-48E, 海拔: 6米

当前天气观测

该预报发布于10分钟前的00:00 UTC
风速3节,风向西北
温度 17°C
湿度 94%
气压 1019 hPa
能見度: 0600
散云层高于200英尺
多云层高于400英尺
毛毛雨, 雾

METAR: VVNB 250000Z 31003KT 0600 R11R/0800N DZ FG SCT002 BKN004 17/16 Q1019 BECMG TL0040 0900 DZ FG

时间: 07:10 (00:10 UTC)

预报

该预报发布于1小时和10分钟前的23:00 UTC
预报有效从25日的 00点(UTC)到 25日的 24点(UTC)
风速3节,风向东北
能見度: 1500
散云层高于500英尺
多云层高于1300英尺
轻雾
短暂存在
从 25日的 00点(UTC)到 25日的 03点(UTC)
能見度: 0800
散云层高于300英尺
多云层高于1300英尺
小毛毛雨, 雾
成为
从 25日的 05点(UTC)到 25日的 06点(UTC)
能見度: 3200
散云层高于600英尺
多云层高于2000英尺
轻雾
成为
从 25日的 14点(UTC)到 25日的 16点(UTC)
能見度: 2500
轻雾
短暂存在
从 25日的 18点(UTC)到 25日的 24点(UTC)
能見度: 1200
散云层高于400英尺
多云层高于1300英尺
小毛毛雨, 轻雾

TAF: VVNB 242300Z 2500/2524 05003KT 1500 BR SCT005 BKN013 TEMPO 2500/2503 0800 -DZ FG SCT003 BKN013 BECMG 2505/2506 3200 BR SCT006 BKN020 BECMG 2514/2516 2500 BR TEMPO 2518/2524 1200 -DZ BR SCT004 BKN013

超过4000个机场的气象观测和天气预报(METAR&TAF报告)。

可查询的气象台以黄色和红色小点在地图上表示。

将鼠标移到小点上方,可查看气象台名称。

然后点击查看天气观测和预报。

如需切换地图:点击带黑十字的绿色按钮放大地图;点击带横线的绿色按钮缩小地图;或者点击绿色箭头查看邻近地区的地图。


METAR-TAF: